Terminal Aerodrome Forecast
Issued by NWS

Home | Current Version | Previous Version | Text Only | Print | Product List | Glossary Off
Versions: 1 2 3 4 5 6 7 8 9 10 11 12 13 14 15

000
FTUS43 KTOP 231400 AAA
TAFFOE
TAF AMD
KFOE 231428Z 2314/2412 05010KT P6SM SCT120
     FM231500 33012G22KT P6SM FEW060 SCT120
     FM231800 05010KT P6SM SCT120
     FM240500 10005KT P6SM SCT120=

USA.gov is the U.S. government's official web portal to all federal, state and local government web resources and services.